createdAt,value
2023-10-08T00:00:07.137Z,38.57
2023-10-08T00:02:16.609Z,38.68
2023-10-08T00:04:21.396Z,38.69
2023-10-08T00:06:26.764Z,38.89
2023-10-08T00:08:32.721Z,38.82
2023-10-08T00:10:40.852Z,38.96
2023-10-08T00:12:45.476Z,39.14
2023-10-08T00:14:50.440Z,39.18
2023-10-08T00:16:55.339Z,39.24
2023-10-08T00:19:00.213Z,39.36
2023-10-08T00:21:05.538Z,39.47
2023-10-08T00:23:10.456Z,39.50
2023-10-08T00:25:15.584Z,39.67
2023-10-08T00:27:20.338Z,39.76
2023-10-08T00:29:25.127Z,39.74
2023-10-08T00:31:32.496Z,40.01
2023-10-08T00:33:37.350Z,40.10
2023-10-08T00:35:43.013Z,40.27
2023-10-08T00:37:47.804Z,40.22
2023-10-08T00:39:52.706Z,40.41
2023-10-08T00:41:57.318Z,40.38
2023-10-08T00:44:02.242Z,40.32
2023-10-08T00:46:10.257Z,40.16
2023-10-08T00:48:15.363Z,40.22
2023-10-08T00:50:20.918Z,40.17
2023-10-08T00:52:26.041Z,40.07
2023-10-08T00:54:30.841Z,39.99
2023-10-08T00:56:37.269Z,39.90
2023-10-08T00:58:42.495Z,39.92
2023-10-08T01:00:47.571Z,39.83
2023-10-08T01:02:52.486Z,39.74
2023-10-08T01:04:57.604Z,39.74
2023-10-08T01:07:03.610Z,39.74
2023-10-08T01:09:08.408Z,39.64
2023-10-08T01:11:23.638Z,39.81
2023-10-08T01:13:31.091Z,39.79
2023-10-08T01:15:35.851Z,39.80
2023-10-08T01:17:40.784Z,39.80
2023-10-08T01:19:45.972Z,39.81
2023-10-08T01:21:50.839Z,39.83
2023-10-08T01:23:55.579Z,39.99
2023-10-08T01:26:00.328Z,40.07
2023-10-08T01:28:06.033Z,40.04
2023-10-08T01:30:15.205Z,40.13
2023-10-08T01:32:20.777Z,40.20
2023-10-08T01:34:28.548Z,40.25
2023-10-08T01:36:33.543Z,40.29
2023-10-08T01:38:39.497Z,40.49
2023-10-08T01:40:44.996Z,40.53
2023-10-08T01:42:52.885Z,40.65
2023-10-08T01:44:57.673Z,40.76
2023-10-08T01:47:02.449Z,40.61
2023-10-08T01:49:07.159Z,40.58
2023-10-08T01:51:12.086Z,40.59
2023-10-08T01:53:17.522Z,40.70
2023-10-08T01:55:22.660Z,40.76
2023-10-08T01:57:27.273Z,40.74
2023-10-08T01:59:33.790Z,40.62
2023-10-08T02:01:38.857Z,40.75
2023-10-08T02:03:43.969Z,40.70
2023-10-08T02:05:51.841Z,40.61
2023-10-08T02:07:56.799Z,40.57
2023-10-08T02:10:05.802Z,40.56
2023-10-08T02:12:11.995Z,40.47
2023-10-08T02:14:18.192Z,40.50
2023-10-08T02:16:22.979Z,40.48
2023-10-08T02:18:28.654Z,40.51
2023-10-08T02:20:36.064Z,40.62
2023-10-08T02:22:40.824Z,40.71
2023-10-08T02:24:45.762Z,40.69
2023-10-08T02:26:50.773Z,40.90
2023-10-08T02:28:55.533Z,40.99
2023-10-08T02:31:00.364Z,41.18
2023-10-08T02:33:05.752Z,41.12
2023-10-08T02:35:11.042Z,41.41
2023-10-08T02:37:15.728Z,41.47
2023-10-08T02:39:20.471Z,41.50
2023-10-08T02:41:25.293Z,41.76
2023-10-08T02:43:30.235Z,41.85
2023-10-08T02:45:35.016Z,42.01
2023-10-08T02:47:40.159Z,42.08
2023-10-08T02:49:44.856Z,42.27
2023-10-08T02:51:51.898Z,42.33
2023-10-08T02:53:56.573Z,42.61
2023-10-08T02:56:01.434Z,42.64
2023-10-08T02:58:11.036Z,42.81
2023-10-08T03:00:18.412Z,42.89
2023-10-08T03:02:23.309Z,43.08
2023-10-08T03:04:28.501Z,43.12
2023-10-08T03:06:36.330Z,43.37
2023-10-08T03:08:43.738Z,43.54
2023-10-08T03:10:49.186Z,43.69
2023-10-08T03:12:54.176Z,43.82
2023-10-08T03:14:59.092Z,43.92
2023-10-08T03:17:03.802Z,43.93
2023-10-08T03:19:08.814Z,44.15
2023-10-08T03:21:15.993Z,44.28
2023-10-08T03:23:20.945Z,44.39
2023-10-08T03:25:25.764Z,44.36
2023-10-08T03:27:33.453Z,44.56
2023-10-08T03:29:38.368Z,44.59
2023-10-08T03:31:43.690Z,44.79
2023-10-08T03:33:48.402Z,44.88
2023-10-08T03:35:53.427Z,45.01
2023-10-08T03:37:58.621Z,44.99
2023-10-08T03:40:03.879Z,45.12
2023-10-08T03:42:08.616Z,45.21
2023-10-08T03:44:13.322Z,45.20
2023-10-08T03:46:18.142Z,45.26
2023-10-08T03:48:22.871Z,45.42
2023-10-08T03:50:30.185Z,45.53
2023-10-08T03:52:35.018Z,45.54
2023-10-08T03:54:39.715Z,45.50
2023-10-08T03:56:45.508Z,45.63
2023-10-08T03:58:50.244Z,45.60
2023-10-08T04:00:56.136Z,45.75
2023-10-08T04:03:01.925Z,45.77
2023-10-08T04:05:07.463Z,45.71
2023-10-08T04:07:15.235Z,45.89
2023-10-08T04:09:23.242Z,45.98
2023-10-08T04:11:28.122Z,45.93
2023-10-08T04:13:33.150Z,45.85
2023-10-08T04:15:38.403Z,45.94
2023-10-08T04:17:43.204Z,45.99
2023-10-08T04:19:48.161Z,45.93
2023-10-08T04:21:55.740Z,45.89
2023-10-08T04:24:00.864Z,45.98
2023-10-08T04:26:05.541Z,45.93
2023-10-08T04:28:10.821Z,45.94
2023-10-08T04:30:16.372Z,46.01
2023-10-08T04:32:21.249Z,46.10
2023-10-08T04:34:25.906Z,45.97
2023-10-08T04:36:33.127Z,46.06
2023-10-08T04:38:38.056Z,46.16
2023-10-08T04:40:46.007Z,46.36
2023-10-08T04:42:53.523Z,46.31
2023-10-08T04:44:58.267Z,46.23
2023-10-08T04:47:03.014Z,46.33
2023-10-08T04:49:08.066Z,46.56
2023-10-08T04:51:12.820Z,46.67
2023-10-08T04:53:20.537Z,46.64
2023-10-08T04:55:25.201Z,46.75
2023-10-08T04:57:32.619Z,46.91
2023-10-08T04:59:37.666Z,46.77
2023-10-08T05:01:42.704Z,46.80
2023-10-08T05:03:49.448Z,46.94
2023-10-08T05:05:54.480Z,47.06
2023-10-08T05:07:59.203Z,47.36
2023-10-08T05:10:04.243Z,47.19
2023-10-08T05:12:08.925Z,47.20
2023-10-08T05:14:14.255Z,47.25
2023-10-08T05:16:19.465Z,47.42
2023-10-08T05:18:24.802Z,47.56
2023-10-08T05:20:30.421Z,47.53
2023-10-08T05:22:39.202Z,47.59
2023-10-08T05:24:47.142Z,47.60
2023-10-08T05:26:51.813Z,47.68
2023-10-08T05:28:56.733Z,47.80
2023-10-08T05:31:09.883Z,47.76
2023-10-08T05:33:15.027Z,47.80
2023-10-08T05:35:19.819Z,47.83
2023-10-08T05:37:24.476Z,47.93
2023-10-08T05:39:29.370Z,47.93
2023-10-08T05:41:34.692Z,48.01
2023-10-08T05:43:40.028Z,47.92
2023-10-08T05:45:44.737Z,48.02
2023-10-08T05:47:49.474Z,47.94
2023-10-08T05:49:54.325Z,48.05
2023-10-08T05:51:59.190Z,48.09
2023-10-08T05:54:04.137Z,48.09
2023-10-08T05:56:09.166Z,48.40
2023-10-08T05:58:14.023Z,48.29
2023-10-08T06:00:19.544Z,48.38
2023-10-08T06:02:26.397Z,48.41
2023-10-08T06:04:31.336Z,48.31
2023-10-08T06:06:38.815Z,48.31
2023-10-08T06:08:46.678Z,48.52
2023-10-08T06:10:51.516Z,48.53
2023-10-08T06:13:00.592Z,48.65
2023-10-08T06:15:06.271Z,48.54
2023-10-08T06:17:10.939Z,48.68
2023-10-08T06:19:16.206Z,48.66
2023-10-08T06:21:21.035Z,48.50
2023-10-08T06:23:32.192Z,48.53
2023-10-08T06:25:36.921Z,48.55
2023-10-08T06:27:41.673Z,48.55
2023-10-08T06:29:46.534Z,48.60
2023-10-08T06:31:51.238Z,48.52
2023-10-08T06:33:56.123Z,48.55
2023-10-08T06:36:01.307Z,48.44
2023-10-08T06:38:06.292Z,48.47
2023-10-08T06:40:12.642Z,48.41
2023-10-08T06:42:17.526Z,48.32
2023-10-08T06:44:22.276Z,48.09
2023-10-08T06:46:27.038Z,48.16
2023-10-08T06:48:31.932Z,48.03
2023-10-08T06:50:36.978Z,48.01
2023-10-08T06:52:41.779Z,47.87
2023-10-08T06:54:46.556Z,47.98
2023-10-08T06:56:51.281Z,47.89
2023-10-08T06:58:56.040Z,47.85
2023-10-08T07:01:01.409Z,47.78
2023-10-08T07:03:09.323Z,47.79
2023-10-08T07:05:14.378Z,47.74
2023-10-08T07:07:19.341Z,47.67
2023-10-08T07:09:24.286Z,47.76
2023-10-08T07:11:29.483Z,47.65
2023-10-08T07:13:34.276Z,47.75
2023-10-08T07:15:39.387Z,47.86
2023-10-08T07:17:47.191Z,47.86
2023-10-08T07:19:52.209Z,47.86
2023-10-08T07:21:57.268Z,48.03
2023-10-08T07:24:02.101Z,47.90
2023-10-08T07:26:06.775Z,48.02
2023-10-08T07:28:11.512Z,47.93
2023-10-08T07:30:19.418Z,48.07
2023-10-08T07:32:25.727Z,47.99
2023-10-08T07:34:34.298Z,47.97
2023-10-08T07:36:39.125Z,48.10
2023-10-08T07:38:44.260Z,48.03
2023-10-08T07:40:49.080Z,48.08
2023-10-08T07:42:56.601Z,47.98
2023-10-08T07:45:01.379Z,48.06
2023-10-08T07:47:06.746Z,47.86
2023-10-08T07:49:11.456Z,47.65
2023-10-08T07:51:17.272Z,47.65
2023-10-08T07:53:22.268Z,47.47
2023-10-08T07:55:27.081Z,47.37
2023-10-08T07:57:32.162Z,47.24
2023-10-08T07:59:37.178Z,47.10
2023-10-08T08:01:45.023Z,47.21
2023-10-08T08:03:50.098Z,47.21
2023-10-08T08:05:55.307Z,47.18
2023-10-08T08:08:00.191Z,47.42
2023-10-08T08:10:05.302Z,47.64
2023-10-08T08:12:10.212Z,47.78
2023-10-08T08:14:15.276Z,48.08
2023-10-08T08:16:20.125Z,48.26
2023-10-08T08:18:24.988Z,48.26
2023-10-08T08:20:29.691Z,48.45
2023-10-08T08:22:34.514Z,48.68
2023-10-08T08:24:39.461Z,48.77
2023-10-08T08:26:44.125Z,48.83
2023-10-08T08:28:48.902Z,49.02
2023-10-08T08:30:54.199Z,49.14
2023-10-08T08:32:59.178Z,49.28
2023-10-08T08:35:03.978Z,49.36
2023-10-08T08:37:08.991Z,49.53
2023-10-08T08:39:16.776Z,49.83
2023-10-08T08:41:21.883Z,49.94
2023-10-08T08:43:26.995Z,50.51
2023-10-08T08:45:32.356Z,50.95
2023-10-08T08:47:38.544Z,51.10
2023-10-08T08:49:45.210Z,51.22
2023-10-08T08:51:53.458Z,51.11
2023-10-08T08:53:58.314Z,51.17
2023-10-08T08:56:06.353Z,51.48
2023-10-08T08:58:11.073Z,51.74
2023-10-08T09:00:18.291Z,51.75
2023-10-08T09:02:23.439Z,52.23
2023-10-08T09:04:32.265Z,52.47
2023-10-08T09:06:38.111Z,53.17
2023-10-08T09:08:43.038Z,54.14
2023-10-08T09:10:47.880Z,58.66
2023-10-08T09:12:52.828Z,62.73
2023-10-08T09:15:03.160Z,65.21
2023-10-08T09:17:08.149Z,68.01
2023-10-08T09:19:13.182Z,69.28
2023-10-08T09:21:21.879Z,70.76
2023-10-08T09:23:26.867Z,71.61
2023-10-08T09:25:31.842Z,72.47
2023-10-08T09:27:36.799Z,72.19
2023-10-08T09:29:41.878Z,71.99
2023-10-08T09:31:54.883Z,72.42
2023-10-08T09:33:59.670Z,71.87
2023-10-08T09:36:09.226Z,72.85
2023-10-08T09:38:14.228Z,73.11
2023-10-08T09:40:20.815Z,73.14
2023-10-08T09:42:27.296Z,73.33
2023-10-08T09:44:32.831Z,73.22
2023-10-08T09:46:42.466Z,73.61
2023-10-08T09:48:52.548Z,73.75
2023-10-08T09:50:59.483Z,73.84
2023-10-08T09:53:11.590Z,73.56
2023-10-08T09:55:18.773Z,73.90
2023-10-08T09:57:24.514Z,74.59
2023-10-08T09:59:30.187Z,75.96
2023-10-08T10:01:35.443Z,76.40
2023-10-08T10:03:40.515Z,77.67
2023-10-08T10:05:46.608Z,77.62
2023-10-08T10:07:55.889Z,78.35
2023-10-08T10:10:00.746Z,79.14
2023-10-08T10:12:07.851Z,80.19
2023-10-08T10:14:13.007Z,81.09
2023-10-08T10:16:22.399Z,80.68
2023-10-08T10:18:31.482Z,81.12
2023-10-08T10:20:39.402Z,80.70
2023-10-08T10:22:44.948Z,80.64
2023-10-08T10:24:50.819Z,80.83
2023-10-08T10:27:12.430Z,82.10
2023-10-08T10:29:24.058Z,82.64
2023-10-08T10:31:32.962Z,82.64
2023-10-08T10:33:37.905Z,82.87
2023-10-08T10:35:42.815Z,82.55
2023-10-08T10:37:48.345Z,82.88
2023-10-08T10:39:59.322Z,83.36
2023-10-08T10:42:05.097Z,82.93
2023-10-08T10:44:10.042Z,83.28
2023-10-08T10:46:14.997Z,84.09
2023-10-08T10:48:20.187Z,84.83
2023-10-08T10:50:25.149Z,85.77
2023-10-08T10:52:33.241Z,86.18
2023-10-08T10:54:38.927Z,86.81
2023-10-08T10:56:45.350Z,87.82
2023-10-08T10:58:51.017Z,88.58
2023-10-08T11:00:56.026Z,88.87
2023-10-08T11:03:02.603Z,89.96
2023-10-08T11:05:08.800Z,89.90
2023-10-08T11:07:14.052Z,90.78
2023-10-08T11:09:18.993Z,91.62
2023-10-08T11:11:29.038Z,91.87
2023-10-08T11:13:35.573Z,92.19
2023-10-08T11:15:40.660Z,92.61
2023-10-08T11:17:47.328Z,93.29
2023-10-08T11:19:52.216Z,93.68
2023-10-08T11:21:57.168Z,94.37
2023-10-08T11:24:02.022Z,95.30
2023-10-08T11:26:07.465Z,95.52
2023-10-08T11:28:12.362Z,96.29
2023-10-08T11:30:17.273Z,96.93
2023-10-08T11:32:22.100Z,98.13
2023-10-08T11:34:34.238Z,99.57
2023-10-08T11:36:40.483Z,99.90
2023-10-08T11:38:45.744Z,100.00
2023-10-08T11:40:50.809Z,100.00
2023-10-08T11:42:56.043Z,100.00
2023-10-08T11:45:01.316Z,100.00
2023-10-08T11:47:06.391Z,100.00
2023-10-08T11:49:11.225Z,100.00
2023-10-08T11:51:16.464Z,100.00
2023-10-08T11:53:21.313Z,100.00
2023-10-08T11:55:26.016Z,100.00
2023-10-08T11:57:30.836Z,100.00
2023-10-08T11:59:35.575Z,100.00
2023-10-08T12:01:40.913Z,100.00
2023-10-08T12:03:46.658Z,100.00
2023-10-08T12:05:51.925Z,100.00
2023-10-08T12:07:57.150Z,100.00
2023-10-08T12:10:01.855Z,100.00
2023-10-08T12:12:07.252Z,100.00
2023-10-08T12:14:13.215Z,100.00
2023-10-08T12:16:19.200Z,100.00
2023-10-08T12:18:25.766Z,100.00
2023-10-08T12:20:31.483Z,100.00
2023-10-08T12:22:36.389Z,100.00
2023-10-08T12:24:41.649Z,100.00
2023-10-08T12:26:46.477Z,100.00
2023-10-08T12:28:52.671Z,100.00
2023-10-08T12:30:58.070Z,100.00
2023-10-08T12:33:03.648Z,100.00
2023-10-08T12:35:10.959Z,100.00
2023-10-08T12:37:16.261Z,100.00
2023-10-08T12:39:21.640Z,100.00
2023-10-08T12:41:26.829Z,100.00
2023-10-08T12:43:31.625Z,100.00
2023-10-08T12:45:36.839Z,100.00
2023-10-08T12:47:41.913Z,100.00
2023-10-08T12:49:49.833Z,100.00
2023-10-08T12:51:55.262Z,100.00
2023-10-08T12:54:03.185Z,100.00
2023-10-08T12:56:09.711Z,100.00
2023-10-08T12:58:14.620Z,100.00
2023-10-08T13:00:20.730Z,100.00
2023-10-08T13:02:26.051Z,100.00
2023-10-08T13:04:32.140Z,100.00
2023-10-08T13:06:38.191Z,100.00
2023-10-08T13:08:43.990Z,100.00
2023-10-08T13:10:49.703Z,100.00
2023-10-08T13:12:59.363Z,100.00
2023-10-08T13:15:04.521Z,100.00
2023-10-08T13:17:10.214Z,100.00
2023-10-08T13:19:16.576Z,100.00
2023-10-08T13:21:23.821Z,100.00
2023-10-08T13:23:30.705Z,100.00
2023-10-08T13:25:37.857Z,100.00
2023-10-08T13:27:43.201Z,100.00
2023-10-08T13:29:49.728Z,100.00
2023-10-08T13:31:57.071Z,100.00
2023-10-08T13:34:02.200Z,100.00
2023-10-08T13:36:18.105Z,100.00
2023-10-08T13:38:26.001Z,100.00
2023-10-08T13:40:32.127Z,100.00
2023-10-08T13:42:38.771Z,100.00
2023-10-08T13:44:45.426Z,100.00
2023-10-08T13:46:51.911Z,100.00
2023-10-08T13:48:58.601Z,100.00
2023-10-08T13:51:07.853Z,100.00
2023-10-08T13:53:14.842Z,100.00
2023-10-08T13:55:21.089Z,100.00
2023-10-08T13:57:29.911Z,100.00
2023-10-08T13:59:36.606Z,100.00
2023-10-08T14:01:44.746Z,100.00
2023-10-08T14:03:52.570Z,100.00
2023-10-08T14:05:58.668Z,100.00
2023-10-08T14:08:03.682Z,100.00
2023-10-08T14:10:10.897Z,100.00
2023-10-08T14:12:16.529Z,100.00
2023-10-08T14:14:23.383Z,100.00
2023-10-08T14:16:29.680Z,100.00
2023-10-08T14:18:35.744Z,100.00
2023-10-08T14:20:45.758Z,100.00
2023-10-08T14:22:52.668Z,100.00
2023-10-08T14:24:59.422Z,100.00
2023-10-08T14:27:04.869Z,100.00
2023-10-08T14:29:11.612Z,100.00
2023-10-08T14:31:17.969Z,100.00
2023-10-08T14:33:25.767Z,100.00
2023-10-08T14:35:31.545Z,100.00
2023-10-08T14:37:38.488Z,100.00
2023-10-08T14:39:44.493Z,100.00
2023-10-08T14:41:53.150Z,100.00
2023-10-08T14:43:59.957Z,100.00
2023-10-08T14:46:06.375Z,100.00
2023-10-08T14:48:13.419Z,100.00
2023-10-08T14:50:19.206Z,100.00
2023-10-08T14:52:24.786Z,100.00
2023-10-08T14:54:31.365Z,100.00
2023-10-08T14:56:38.431Z,100.00
2023-10-08T14:58:44.796Z,100.00
2023-10-08T15:00:51.168Z,100.00
2023-10-08T15:02:58.962Z,100.00
2023-10-08T15:05:05.507Z,100.00
2023-10-08T15:07:12.501Z,100.00
2023-10-08T15:09:19.124Z,100.00
2023-10-08T15:11:25.707Z,100.00
2023-10-08T15:13:32.730Z,100.00
2023-10-08T15:15:40.155Z,100.00
2023-10-08T15:17:48.377Z,100.00
2023-10-08T15:19:54.735Z,100.00
2023-10-08T15:22:01.365Z,100.00
2023-10-08T15:24:11.433Z,100.00
2023-10-08T15:26:18.348Z,100.00
2023-10-08T15:28:26.938Z,100.00
2023-10-08T15:30:33.211Z,100.00
2023-10-08T15:32:41.162Z,100.00
2023-10-08T15:34:49.751Z,100.00
2023-10-08T15:36:56.798Z,100.00
2023-10-08T15:39:03.164Z,100.00
2023-10-08T15:41:09.679Z,100.00
2023-10-08T15:43:17.044Z,100.00
2023-10-08T15:45:25.297Z,100.00
2023-10-08T15:47:33.539Z,100.00
2023-10-08T15:49:40.137Z,100.00
2023-10-08T15:51:46.554Z,100.00
2023-10-08T15:53:52.611Z,100.00
2023-10-08T15:55:59.170Z,100.00
2023-10-08T15:58:05.348Z,100.00
2023-10-08T16:00:15.068Z,100.00
2023-10-08T16:02:21.797Z,100.00
2023-10-08T16:04:29.742Z,100.00
2023-10-08T16:06:36.968Z,100.00
2023-10-08T16:08:42.824Z,100.00
2023-10-08T16:10:49.457Z,100.00
2023-10-08T16:12:55.634Z,100.00
2023-10-08T16:15:00.971Z,100.00
2023-10-08T16:17:07.971Z,100.00
2023-10-08T16:19:15.542Z,100.00
2023-10-08T16:21:21.614Z,100.00
2023-10-08T16:23:29.272Z,100.00
2023-10-08T16:25:36.976Z,100.00
2023-10-08T16:27:45.341Z,100.00
2023-10-08T16:29:53.049Z,100.00
2023-10-08T16:32:04.544Z,100.00
2023-10-08T16:34:12.198Z,100.00
2023-10-08T16:36:18.923Z,100.00
2023-10-08T16:38:25.565Z,100.00
2023-10-08T16:40:33.899Z,100.00
2023-10-08T16:42:40.030Z,100.00
2023-10-08T16:44:46.518Z,100.00
2023-10-08T16:46:53.003Z,100.00
2023-10-08T16:48:59.378Z,100.00
2023-10-08T16:51:07.176Z,100.00
2023-10-08T16:53:14.786Z,100.00
2023-10-08T16:55:21.292Z,100.00
2023-10-08T16:57:28.103Z,100.00
2023-10-08T16:59:38.080Z,100.00
2023-10-08T17:01:46.525Z,100.00
2023-10-08T17:03:51.972Z,100.00
2023-10-08T17:06:01.254Z,100.00
2023-10-08T17:08:08.178Z,100.00
2023-10-08T17:10:15.024Z,100.00
2023-10-08T17:12:22.249Z,100.00
2023-10-08T17:14:28.600Z,100.00
2023-10-08T17:16:35.680Z,100.00
2023-10-08T17:18:43.475Z,100.00
2023-10-08T17:20:49.957Z,100.00
2023-10-08T17:22:59.177Z,100.00
2023-10-08T17:25:06.718Z,100.00
2023-10-08T17:27:15.031Z,100.00
2023-10-08T17:29:26.048Z,100.00
2023-10-08T17:31:33.543Z,100.00
2023-10-08T17:33:41.384Z,100.00
2023-10-08T17:35:48.942Z,100.00
2023-10-08T17:37:56.333Z,100.00
2023-10-08T17:40:11.887Z,100.00
2023-10-08T17:42:19.198Z,100.00
2023-10-08T17:44:28.933Z,100.00
2023-10-08T17:46:36.178Z,100.00
2023-10-08T17:48:43.184Z,100.00
2023-10-08T17:50:51.510Z,100.00
2023-10-08T17:52:58.076Z,100.00
2023-10-08T17:55:08.237Z,100.00
2023-10-08T17:57:14.954Z,100.00
2023-10-08T17:59:21.881Z,100.00
2023-10-08T18:01:28.217Z,100.00
2023-10-08T18:03:35.237Z,100.00
2023-10-08T18:05:43.598Z,100.00
2023-10-08T18:07:51.662Z,100.00
2023-10-08T18:10:01.537Z,100.00
2023-10-08T18:12:15.566Z,100.00
2023-10-08T18:14:23.327Z,100.00
2023-10-08T18:16:31.123Z,100.00
2023-10-08T18:18:38.890Z,100.00
2023-10-08T18:20:45.687Z,100.00
2023-10-08T18:22:53.698Z,100.00
2023-10-08T18:24:59.580Z,100.00
2023-10-08T18:27:08.215Z,100.00
2023-10-08T18:29:16.593Z,100.00
2023-10-08T18:31:25.679Z,100.00
2023-10-08T18:33:35.862Z,100.00
2023-10-08T18:35:42.947Z,100.00
2023-10-08T18:37:51.090Z,100.00
2023-10-08T18:40:02.683Z,100.00
2023-10-08T18:42:12.889Z,100.00
2023-10-08T18:44:20.452Z,100.00
2023-10-08T18:46:31.182Z,100.00
2023-10-08T18:48:42.243Z,100.00
2023-10-08T18:50:49.860Z,100.00
2023-10-08T18:52:59.086Z,100.00
2023-10-08T18:55:13.412Z,100.00
2023-10-08T18:57:21.989Z,100.00
2023-10-08T18:59:29.704Z,100.00
2023-10-08T19:01:39.273Z,100.00
2023-10-08T19:03:50.296Z,100.00
2023-10-08T19:05:58.099Z,100.00
2023-10-08T19:08:06.084Z,100.00
2023-10-08T19:10:17.032Z,100.00
2023-10-08T19:12:23.448Z,100.00
2023-10-08T19:14:30.755Z,100.00
2023-10-08T19:16:39.200Z,100.00
2023-10-08T19:18:50.901Z,100.00
2023-10-08T19:23:20.152Z,100.00
2023-10-08T19:25:31.121Z,100.00
2023-10-08T19:27:44.604Z,100.00
2023-10-08T19:29:54.176Z,100.00
2023-10-08T19:32:02.426Z,100.00
2023-10-08T19:36:41.396Z,100.00
2023-10-08T19:38:51.630Z,100.00
2023-10-08T19:41:13.916Z,100.00
2023-10-08T19:43:23.110Z,100.00
2023-10-08T19:45:39.694Z,100.00
2023-10-08T19:47:51.963Z,100.00
2023-10-08T19:49:59.626Z,100.00
2023-10-08T19:52:05.849Z,100.00
2023-10-08T19:54:16.527Z,100.00
2023-10-08T19:56:23.856Z,100.00
2023-10-08T19:58:30.689Z,100.00
2023-10-08T20:00:37.329Z,100.00
2023-10-08T20:02:45.881Z,100.00
2023-10-08T20:04:55.921Z,100.00
2023-10-08T20:07:05.391Z,100.00
2023-10-08T20:09:12.680Z,100.00
2023-10-08T20:11:22.385Z,100.00
2023-10-08T20:13:31.146Z,100.00
2023-10-08T20:15:38.117Z,100.00
2023-10-08T20:17:47.076Z,100.00
2023-10-08T20:19:53.679Z,100.00
2023-10-08T20:21:59.886Z,100.00
2023-10-08T20:24:08.215Z,100.00
2023-10-08T20:26:20.789Z,100.00
2023-10-08T20:28:34.582Z,100.00
2023-10-08T20:30:44.985Z,100.00
2023-10-08T20:32:53.675Z,100.00
2023-10-08T20:34:59.797Z,100.00
2023-10-08T20:37:07.999Z,100.00
2023-10-08T20:39:13.354Z,100.00
2023-10-08T20:41:24.284Z,100.00
2023-10-08T20:43:30.382Z,100.00
2023-10-08T20:45:37.457Z,100.00
2023-10-08T20:47:45.848Z,100.00
2023-10-08T20:49:51.422Z,100.00
2023-10-08T20:51:56.198Z,100.00
2023-10-08T20:54:01.706Z,100.00
2023-10-08T20:56:11.792Z,100.00
2023-10-08T20:58:19.499Z,100.00
2023-10-08T21:00:25.820Z,100.00
2023-10-08T21:02:33.105Z,100.00
2023-10-08T21:04:38.292Z,100.00
2023-10-08T21:06:43.268Z,100.00
2023-10-08T21:08:48.183Z,100.00
2023-10-08T21:13:04.358Z,100.00
2023-10-08T21:15:11.729Z,100.00
2023-10-08T21:17:16.444Z,100.00
2023-10-08T21:19:23.242Z,100.00
2023-10-08T21:21:29.366Z,100.00
2023-10-08T21:23:34.637Z,100.00
2023-10-08T21:25:40.988Z,100.00
2023-10-08T21:27:51.803Z,100.00
2023-10-08T21:29:56.770Z,100.00
2023-10-08T21:32:01.496Z,100.00
2023-10-08T21:34:06.477Z,100.00
2023-10-08T21:36:14.470Z,100.00
2023-10-08T21:38:23.969Z,100.00
2023-10-08T21:40:29.267Z,100.00
2023-10-08T21:42:34.113Z,100.00
2023-10-08T21:44:41.857Z,100.00
2023-10-08T21:46:46.936Z,100.00
2023-10-08T21:48:51.723Z,100.00
2023-10-08T21:50:58.085Z,100.00
2023-10-08T21:53:06.239Z,100.00
2023-10-08T21:55:13.252Z,100.00
2023-10-08T21:57:18.090Z,100.00
2023-10-08T21:59:23.094Z,100.00
2023-10-08T22:01:28.166Z,100.00
2023-10-08T22:03:34.185Z,100.00
2023-10-08T22:05:41.457Z,100.00
2023-10-08T22:07:52.345Z,100.00
2023-10-08T22:09:57.410Z,100.00
2023-10-08T22:12:02.414Z,100.00
2023-10-08T22:14:07.790Z,100.00
2023-10-08T22:16:12.453Z,100.00
2023-10-08T22:18:18.234Z,100.00
2023-10-08T22:20:23.614Z,100.00
2023-10-08T22:22:33.778Z,100.00
2023-10-08T22:24:38.635Z,100.00
2023-10-08T22:26:43.646Z,100.00
2023-10-08T22:28:48.497Z,100.00
2023-10-08T22:30:54.876Z,100.00
2023-10-08T22:33:00.022Z,100.00
2023-10-08T22:35:11.820Z,100.00
2023-10-08T22:37:16.852Z,100.00
2023-10-08T22:39:21.811Z,100.00
2023-10-08T22:41:29.909Z,100.00
2023-10-08T22:43:35.424Z,100.00
2023-10-08T22:45:40.294Z,100.00
2023-10-08T22:47:46.146Z,100.00
2023-10-08T22:49:51.201Z,100.00
2023-10-08T22:51:56.161Z,100.00
2023-10-08T22:54:04.578Z,100.00
2023-10-08T22:56:09.754Z,100.00
2023-10-08T22:58:14.696Z,100.00
2023-10-08T23:00:22.938Z,100.00
2023-10-08T23:02:28.223Z,100.00
2023-10-08T23:04:33.029Z,100.00
2023-10-08T23:06:41.122Z,100.00
2023-10-08T23:08:46.584Z,100.00
2023-10-08T23:10:53.856Z,100.00
2023-10-08T23:13:01.469Z,100.00
2023-10-08T23:15:10.291Z,100.00
2023-10-08T23:17:15.296Z,100.00
2023-10-08T23:19:23.243Z,100.00
2023-10-08T23:21:28.531Z,100.00
2023-10-08T23:23:38.637Z,100.00
2023-10-08T23:25:47.286Z,99.56
2023-10-08T23:27:52.055Z,99.30
2023-10-08T23:29:57.313Z,98.85
2023-10-08T23:32:07.822Z,99.05
2023-10-08T23:34:13.239Z,98.97
2023-10-08T23:36:28.609Z,98.82
2023-10-08T23:38:33.463Z,98.43
2023-10-08T23:40:38.565Z,98.60
2023-10-08T23:42:43.337Z,98.33
2023-10-08T23:44:48.307Z,97.68
2023-10-08T23:46:53.883Z,97.50
2023-10-08T23:49:02.101Z,97.48
2023-10-08T23:51:09.822Z,97.48
2023-10-08T23:53:14.744Z,97.60
2023-10-08T23:55:20.314Z,97.85
2023-10-08T23:57:26.318Z,98.77
2023-10-08T23:59:31.652Z,99.11
